Time;durP1;ratioP1;P1;durP2;ratioP2;P2;SDS_P1;SDS_P2;PMS_P1;PMS_P2;Temp;Humidity;BMP_temperature;BMP_pressure;BME280_temperature;BME280_humidity;BME280_pressure;Samples;Min_cycle;Max_cycle;Signal;HPM_P1;HPM_P2
2021/04/30 00:00:48;;;;;;;17.50;12.95;;;384.50;1792.00;;;;;;5073982;28;20024;-71
2021/04/30 00:03:14;;;;;;;18.27;12.82;;;384.50;1792.00;;;;;;5073703;28;20035;-70
2021/04/30 00:05:40;;;;;;;16.90;13.27;;;384.50;1792.00;;;;;;5074149;28;20424;-70
2021/04/30 00:08:05;;;;;;;20.70;12.98;;;384.50;1792.00;;;;;;5073808;28;20032;-70
2021/04/30 00:10:31;;;;;;;19.15;12.65;;;384.50;1792.00;;;;;;5073817;28;20032;-70
2021/04/30 00:12:57;;;;;;;16.02;12.48;;;384.50;1792.00;;;;;;5073551;28;20042;-70
2021/04/30 00:15:23;;;;;;;20.15;13.50;;;384.50;1792.00;;;;;;5073449;28;20099;-70
2021/04/30 00:17:49;;;;;;;18.63;12.48;;;384.40;1792.00;;;;;;5073337;28;20052;-70
2021/04/30 00:20:16;;;;;;;18.25;13.00;;;384.40;1792.00;;;;;;5073273;28;20111;-70
2021/04/30 00:22:42;;;;;;;20.42;12.25;;;384.40;1792.00;;;;;;5073495;28;20025;-70
2021/04/30 00:25:08;;;;;;;16.30;13.15;;;384.40;1792.00;;;;;;5073557;28;20368;-70
2021/04/30 00:27:34;;;;;;;18.67;13.52;;;384.40;1792.00;;;;;;5071862;28;20056;-70
2021/04/30 00:30:00;;;;;;;20.23;12.93;;;384.40;1792.00;;;;;;5073372;28;20017;-70
2021/04/30 00:32:26;;;;;;;20.45;13.07;;;384.30;1792.00;;;;;;5073054;28;20040;-70
2021/04/30 00:34:52;;;;;;;16.05;13.10;;;384.20;1817.60;;;;;;5073351;28;20370;-70
2021/04/30 00:37:17;;;;;;;17.00;13.18;;;384.20;1817.60;;;;;;5073344;28;20038;-71
2021/04/30 00:39:43;;;;;;;17.38;12.63;;;384.30;1817.60;;;;;;5073213;28;20104;-70
2021/04/30 00:42:09;;;;;;;16.63;13.40;;;384.20;1817.60;;;;;;5073453;28;20033;-70
2021/04/30 00:44:35;;;;;;;17.55;13.38;;;384.20;1817.60;;;;;;5073181;28;20390;-69
2021/04/30 00:47:01;;;;;;;17.10;12.68;;;384.20;1817.60;;;;;;5073129;28;20074;-70
2021/04/30 00:49:26;;;;;;;18.90;13.68;;;384.20;1817.60;;;;;;5073061;28;20033;-70
2021/04/30 00:51:52;;;;;;;17.33;13.80;;;384.10;1817.60;;;;;;5072748;28;20029;-70
2021/04/30 00:54:18;;;;;;;19.25;13.18;;;384.10;1817.60;;;;;;5073070;28;20025;-70
2021/04/30 00:56:44;;;;;;;17.85;13.30;;;384.10;1817.60;;;;;;5072933;28;20032;-70
2021/04/30 00:59:11;;;;;;;17.25;12.73;;;384.10;1817.60;;;;;;5073001;28;20020;-70
2021/04/30 01:01:38;;;;;;;19.00;13.20;;;384.10;1817.60;;;;;;5072918;28;20027;-70
2021/04/30 01:04:04;;;;;;;18.33;14.45;;;384.10;1817.60;;;;;;5072583;28;20486;-70
2021/04/30 01:06:31;;;;;;;21.58;14.57;;;384.10;1817.60;;;;;;5072849;28;20048;-70
2021/04/30 01:08:57;;;;;;;21.50;14.35;;;384.10;1817.60;;;;;;5072530;28;20438;-70
2021/04/30 01:11:23;;;;;;;19.98;13.77;;;384.10;1817.60;;;;;;5072344;28;20123;-70
2021/04/30 01:13:49;;;;;;;17.80;13.70;;;384.10;1843.20;;;;;;5070788;28;20067;-70
2021/04/30 01:16:14;;;;;;;19.05;13.85;;;384.00;1843.20;;;;;;5072310;28;20485;-69
2021/04/30 01:18:45;;;;;;;17.52;13.27;;;384.00;1843.20;;;;;;5072294;28;20074;-70
2021/04/30 01:21:12;;;;;;;20.42;14.40;;;359.30;1843.20;;;;;;5071185;28;20490;-71
2021/04/30 01:23:52;;;;;;;18.13;13.73;;;384.00;1843.20;;;;;;5072543;28;20027;-70
2021/04/30 01:26:18;;;;;;;19.20;13.55;;;359.30;1843.20;;;;;;5072407;28;20382;-69
2021/04/30 01:28:45;;;;;;;18.92;13.20;;;359.30;1843.20;;;;;;5072128;28;20025;-70
2021/04/30 01:31:11;;;;;;;18.65;14.05;;;359.20;1843.20;;;;;;5072091;28;20024;-70
2021/04/30 01:33:37;;;;;;;18.95;13.35;;;359.30;1843.20;;;;;;5072022;28;20024;-70
2021/04/30 01:36:04;;;;;;;19.13;12.75;;;359.20;1843.20;;;;;;5072352;28;20028;-69
2021/04/30 01:38:30;;;;;;;17.13;13.25;;;359.20;1843.20;;;;;;5072225;28;20030;-69
2021/04/30 01:40:56;;;;;;;16.60;13.50;;;359.20;1868.80;;;;;;5072015;28;20526;-69
2021/04/30 01:43:25;;;;;;;19.00;13.52;;;359.10;1868.80;;;;;;5071878;28;20115;-70
2021/04/30 01:45:59;;;;;;;17.27;13.77;;;359.10;1868.80;;;;;;5071930;28;20025;-70
2021/04/30 01:48:30;;;;;;;18.30;13.45;;;359.10;1868.80;;;;;;5071820;28;20028;-70
2021/04/30 01:50:59;;;;;;;;;;;359.10;1868.80;;;;;;5072140;28;20024;-69
2021/04/30 01:53:28;;;;;;;18.17;14.38;;;359.10;1868.80;;;;;;5071622;28;20354;-70
2021/04/30 01:55:58;;;;;;;19.88;13.00;;;359.10;1868.80;;;;;;5071836;28;20035;-70
2021/04/30 01:58:24;;;;;;;20.67;14.82;;;359.00;1868.80;;;;;;5071561;28;20024;-71
2021/04/30 02:00:54;;;;;;;19.65;14.18;;;359.00;1868.80;;;;;;5071738;28;20024;-70
2021/04/30 02:03:20;;;;;;;18.48;13.32;;;359.10;1868.80;;;;;;5071560;28;20459;-70
2021/04/30 02:05:46;;;;;;;19.17;13.23;;;359.10;1868.80;;;;;;5071358;28;20471;-70
2021/04/30 02:08:14;;;;;;;19.05;13.43;;;359.10;1868.80;;;;;;5071326;28;20031;-69
2021/04/30 02:10:41;;;;;;;16.38;13.93;;;359.10;1868.80;;;;;;5071442;28;20036;-70
2021/04/30 02:13:07;;;;;;;20.17;14.10;;;359.10;1868.80;;;;;;5069628;28;20044;-70
2021/04/30 02:15:35;;;;;;;20.38;13.85;;;359.10;1868.80;;;;;;5071056;28;20056;-70
2021/04/30 02:18:02;;;;;;;18.33;13.88;;;359.10;1868.80;;;;;;5071090;28;20052;-70
2021/04/30 02:20:28;;;;;;;19.13;13.57;;;359.00;1868.80;;;;;;5070685;28;20104;-70
2021/04/30 02:22:54;;;;;;;20.38;14.02;;;359.00;1868.80;;;;;;5071066;28;20479;-69
2021/04/30 02:25:21;;;;;;;21.17;14.05;;;359.00;1868.80;;;;;;5071229;28;20025;-70
2021/04/30 02:27:49;;;;;;;17.90;13.60;;;359.00;1868.80;;;;;;5071197;28;20367;-70
2021/04/30 02:30:17;;;;;;;15.98;13.10;;;359.10;1868.80;;;;;;5071339;28;20024;-69
2021/04/30 02:32:44;;;;;;;19.83;14.20;;;359.10;1868.80;;;;;;5070984;28;20040;-70
2021/04/30 02:35:14;;;;;;;19.83;15.02;;;359.00;1868.80;;;;;;5071196;28;20483;-70
2021/04/30 02:37:42;;;;;;;20.40;13.98;;;359.00;1868.80;;;;;;5071103;28;20470;-70
2021/04/30 02:40:10;;;;;;;19.50;14.48;;;359.00;1868.80;;;;;;5070999;28;20036;-70
2021/04/30 02:42:36;;;;;;;25.80;15.40;;;359.00;1894.40;;;;;;5070706;28;20077;-70
2021/04/30 02:45:04;;;;;;;19.15;14.23;;;359.00;1894.40;;;;;;5070771;28;20032;-70
2021/04/30 02:47:31;;;;;;;19.67;14.82;;;359.00;1868.80;;;;;;5070888;28;20588;-70
2021/04/30 02:49:58;;;;;;;19.33;14.50;;;358.90;1894.40;;;;;;5070944;28;20036;-70
2021/04/30 02:52:25;;;;;;;20.38;14.52;;;358.90;1894.40;;;;;;5070644;28;20035;-70
2021/04/30 02:54:51;;;;;;;20.15;14.63;;;358.90;1894.40;;;;;;5071111;28;20025;-70
2021/04/30 02:57:17;;;;;;;20.67;15.10;;;358.80;1894.40;;;;;;5070955;28;20028;-70
2021/04/30 02:59:43;;;;;;;19.27;14.02;;;358.90;1894.40;;;;;;5070580;28;20382;-70
2021/04/30 03:02:09;;;;;;;22.83;14.43;;;358.90;1894.40;;;;;;5070998;28;20111;-70
2021/04/30 03:04:35;;;;;;;20.52;15.07;;;358.90;1894.40;;;;;;5070536;28;20027;-70
2021/04/30 03:07:01;;;;;;;20.20;14.85;;;358.90;1894.40;;;;;;5070775;28;20037;-69
2021/04/30 03:09:27;;;;;;;22.20;15.40;;;358.90;1894.40;;;;;;5070634;28;20024;-70
2021/04/30 03:11:52;;;;;;;22.52;15.23;;;358.90;1894.40;;;;;;5070404;28;20033;-70
2021/04/30 03:14:20;;;;;;;19.65;14.75;;;358.90;1920.00;;;;;;5070504;28;20020;-70
2021/04/30 03:16:46;;;;;;;19.60;14.35;;;359.00;1894.40;;;;;;5070075;28;20120;-70
2021/04/30 03:19:12;;;;;;;21.08;14.05;;;358.90;1894.40;;;;;;5070301;28;20477;-70
2021/04/30 03:21:38;;;;;;;22.08;15.20;;;358.90;1894.40;;;;;;5070449;28;20028;-70
2021/04/30 03:24:05;;;;;;;19.33;15.13;;;359.00;1894.40;;;;;;5070266;28;20455;-70
2021/04/30 03:26:31;;;;;;;19.60;14.90;;;358.90;1894.40;;;;;;5070369;28;20039;-70
2021/04/30 03:28:57;;;;;;;21.98;14.40;;;358.90;1894.40;;;;;;5070365;28;20031;-70
2021/04/30 03:31:23;;;;;;;19.15;14.18;;;358.90;1920.00;;;;;;5072517;28;20037;-70
2021/04/30 03:33:48;;;;;;;19.92;13.82;;;359.00;1894.40;;;;;;5074485;28;20489;-70
2021/04/30 03:36:14;;;;;;;19.20;14.55;;;359.00;1920.00;;;;;;5074447;28;20024;-70
2021/04/30 03:38:40;;;;;;;22.85;14.93;;;359.00;1920.00;;;;;;5074449;28;20484;-70
2021/04/30 03:41:06;;;;;;;21.60;14.60;;;359.00;1920.00;;;;;;5074246;28;20028;-70
2021/04/30 03:43:31;;;;;;;17.77;14.02;;;359.00;1920.00;;;;;;5074300;28;20017;-71
2021/04/30 03:45:58;;;;;;;22.80;14.05;;;359.00;1920.00;;;;;;5074278;28;20038;-70
2021/04/30 03:48:25;;;;;;;20.25;15.98;;;359.00;1920.00;;;;;;5074127;28;20028;-70
2021/04/30 03:50:51;;;;;;;19.83;14.02;;;359.00;1920.00;;;;;;5074316;28;20035;-71
2021/04/30 03:53:17;;;;;;;19.40;15.07;;;359.00;1920.00;;;;;;5074343;28;20107;-70
2021/04/30 03:55:44;;;;;;;21.98;15.52;;;359.00;1945.60;;;;;;5073916;28;20500;-70
2021/04/30 03:58:09;;;;;;;22.65;15.40;;;359.00;1945.60;;;;;;5074221;28;20028;-70
2021/04/30 04:00:35;;;;;;;21.23;16.20;;;358.90;1971.20;;;;;;5073725;28;20517;-70
2021/04/30 04:03:01;;;;;;;19.38;15.98;;;358.90;1971.20;;;;;;5074179;28;20082;-70
2021/04/30 04:05:27;;;;;;;22.92;15.75;;;358.90;1971.20;;;;;;5073727;28;20056;-70
2021/04/30 04:07:52;;;;;;;21.60;15.60;;;358.90;1971.20;;;;;;5073680;28;20025;-71
2021/04/30 04:10:18;;;;;;;21.08;15.40;;;358.90;1971.20;;;;;;5073881;28;20490;-70
2021/04/30 04:12:44;;;;;;;22.40;16.02;;;359.00;1971.20;;;;;;5073501;28;20081;-70
2021/04/30 04:15:10;;;;;;;23.55;15.43;;;359.00;1971.20;;;;;;5073589;28;20021;-70
2021/04/30 04:17:36;;;;;;;20.50;15.13;;;359.00;1971.20;;;;;;5073332;28;20124;-70
2021/04/30 04:20:04;;;;;;;19.58;15.70;;;359.00;1971.20;;;;;;5073590;28;20024;-71
2021/04/30 04:22:29;;;;;;;21.83;15.63;;;359.00;1971.20;;;;;;5073458;28;20035;-70
2021/04/30 04:24:55;;;;;;;24.60;16.23;;;359.00;1996.80;;;;;;5073295;28;20032;-70
2021/04/30 04:27:22;;;;;;;21.58;16.25;;;359.00;1996.80;;;;;;5073595;28;20090;-70
2021/04/30 04:29:48;;;;;;;25.05;16.63;;;359.00;1996.80;;;;;;5073333;28;20051;-70
2021/04/30 04:32:13;;;;;;;23.52;17.23;;;359.00;1996.80;;;;;;5072974;28;20076;-70
2021/04/30 04:34:39;;;;;;;26.48;17.10;;;359.00;1996.80;;;;;;5073662;28;20020;-71
2021/04/30 04:37:05;;;;;;;25.00;17.23;;;359.00;1996.80;;;;;;5073456;28;20024;-70
2021/04/30 04:39:32;;;;;;;23.60;16.90;;;359.10;1996.80;;;;;;5073373;28;20047;-70
2021/04/30 04:41:59;;;;;;;21.73;16.25;;;359.00;2022.40;;;;;;5072821;28;20415;-70
2021/04/30 04:44:25;;;;;;;22.67;16.98;;;359.10;2022.40;;;;;;5072971;28;20048;-70
2021/04/30 04:46:51;;;;;;;24.92;16.38;;;359.10;2022.40;;;;;;5073095;28;20060;-70
2021/04/30 04:49:16;;;;;;;23.10;15.77;;;359.10;2022.40;;;;;;5071851;28;20037;-71
2021/04/30 04:51:42;;;;;;;20.88;15.60;;;359.20;2022.40;;;;;;5073090;28;20032;-70
2021/04/30 04:54:08;;;;;;;24.42;16.98;;;359.20;2022.40;;;;;;5073112;28;20063;-71
2021/04/30 04:56:34;;;;;;;21.73;16.05;;;359.20;2022.40;;;;;;5072984;28;20059;-70
2021/04/30 04:58:59;;;;;;;24.77;15.82;;;359.20;2022.40;;;;;;5073046;28;20042;-70
2021/04/30 05:01:26;;;;;;;25.80;17.73;;;359.20;2022.40;;;;;;5072682;28;20028;-69
2021/04/30 05:03:52;;;;;;;27.00;17.40;;;359.30;2022.40;;;;;;5072783;28;20089;-68
2021/04/30 05:06:18;;;;;;;26.23;17.05;;;359.30;2022.40;;;;;;5072899;28;20028;-70
2021/04/30 05:08:43;;;;;;;26.42;17.20;;;384.00;2022.40;;;;;;5072717;28;20052;-70
2021/04/30 05:11:09;;;;;;;19.77;15.75;;;384.00;2022.40;;;;;;5072582;28;20422;-69
2021/04/30 05:13:35;;;;;;;23.30;16.20;;;384.00;2022.40;;;;;;5072398;28;20033;-70
2021/04/30 05:16:02;;;;;;;23.00;15.25;;;384.00;2022.40;;;;;;5072372;28;20051;-70
2021/04/30 05:18:29;;;;;;;25.30;16.50;;;384.10;2022.40;;;;;;5072354;28;20444;-67
2021/04/30 05:20:55;;;;;;;22.55;16.30;;;384.10;2022.40;;;;;;5072295;28;20382;-70
2021/04/30 05:23:22;;;;;;;30.33;16.90;;;384.10;2022.40;;;;;;5072509;28;20032;-68
2021/04/30 05:25:49;;;;;;;22.80;15.70;;;384.20;2022.40;;;;;;5072452;28;20463;-70
2021/04/30 05:28:15;;;;;;;24.02;16.13;;;384.10;2022.40;;;;;;5072168;28;20099;-69
2021/04/30 05:30:41;;;;;;;22.98;15.75;;;384.20;2022.40;;;;;;5072123;28;20039;-68
2021/04/30 05:33:07;;;;;;;21.48;16.10;;;384.30;2022.40;;;;;;5072348;28;20040;-68
2021/04/30 05:35:33;;;;;;;20.00;15.65;;;384.30;2022.40;;;;;;5072006;28;20025;-70
2021/04/30 05:37:59;;;;;;;19.88;15.45;;;384.30;2022.40;;;;;;5072356;28;20031;-69
2021/04/30 05:40:26;;;;;;;24.42;17.20;;;384.40;1996.80;;;;;;5072078;28;20565;-68
2021/04/30 05:42:52;;;;;;;24.88;16.63;;;384.30;2022.40;;;;;;5072020;28;20095;-69
2021/04/30 05:45:18;;;;;;;23.63;17.25;;;384.40;2048.00;;;;;;5071973;28;20059;-68
2021/04/30 05:47:44;;;;;;;26.30;17.88;;;384.40;2073.60;;;;;;5071752;28;20028;-69
2021/04/30 05:50:11;;;;;;;24.63;18.00;;;384.40;2073.60;;;;;;5071917;28;20027;-68
2021/04/30 05:52:38;;;;;;;26.38;18.27;;;384.50;2073.60;;;;;;5071809;28;20036;-69
2021/04/30 05:55:05;;;;;;;23.77;18.00;;;384.40;2099.20;;;;;;5070752;28;20021;-70
2021/04/30 05:57:30;;;;;;;30.67;19.23;;;384.50;2099.20;;;;;;5071695;28;20059;-72
2021/04/30 05:59:56;;;;;;;27.23;19.95;;;384.50;2099.20;;;;;;5071509;28;20032;-69
2021/04/30 06:02:22;;;;;;;32.33;21.35;;;384.50;2124.80;;;;;;5071302;28;20032;-69
2021/04/30 06:04:48;;;;;;;31.10;22.02;;;384.40;2176.00;;;;;;5070368;28;20112;-69
2021/04/30 06:07:14;;;;;;;33.78;22.63;;;384.50;2150.40;;;;;;5071417;28;20090;-68
2021/04/30 06:09:40;;;;;;;39.53;27.25;;;384.60;2150.40;;;;;;5071705;28;20021;-67
2021/04/30 06:12:06;;;;;;;33.45;24.35;;;384.70;2150.40;;;;;;5071262;28;20036;-69
2021/04/30 06:14:33;;;;;;;34.60;23.25;;;384.70;2150.40;;;;;;5071291;28;20077;-67
2021/04/30 06:17:00;;;;;;;30.33;23.20;;;384.80;2124.80;;;;;;5071088;28;20486;-68
2021/04/30 06:19:26;;;;;;;30.13;20.95;;;384.90;2124.80;;;;;;5071014;28;20402;-68
2021/04/30 06:21:53;;;;;;;25.38;19.02;;;384.90;2124.80;;;;;;5071244;28;20020;-67
2021/04/30 06:24:19;;;;;;;27.38;19.90;;;409.60;2150.40;;;;;;5071382;28;20035;-68
2021/04/30 06:26:46;;;;;;;28.67;19.90;;;409.60;2150.40;;;;;;5070983;28;20013;-68
2021/04/30 06:29:11;;;;;;;28.63;21.58;;;409.60;2124.80;;;;;;5070855;28;20025;-68
2021/04/30 06:31:37;;;;;;;27.23;19.30;;;409.60;2150.40;;;;;;5070912;28;20032;-68
2021/04/30 06:34:05;;;;;;;27.02;19.63;;;409.70;2150.40;;;;;;5070749;28;20459;-66
2021/04/30 06:36:31;;;;;;;24.35;18.92;;;409.70;2124.80;;;;;;5071179;28;20043;-69
2021/04/30 06:38:57;;;;;;;28.45;19.95;;;409.70;2150.40;;;;;;5071103;28;20103;-68
2021/04/30 06:41:22;;;;;;;27.48;18.95;;;409.80;2124.80;;;;;;5071034;28;20107;-70
2021/04/30 06:43:48;;;;;;;26.77;18.80;;;409.80;2150.40;;;;;;5071025;28;20422;-69
2021/04/30 06:46:14;;;;;;;25.33;18.25;;;409.80;2150.40;;;;;;5070718;28;20043;-68
2021/04/30 06:48:40;;;;;;;28.88;19.33;;;409.90;2124.80;;;;;;5070899;28;20074;-68
2021/04/30 06:51:05;;;;;;;23.58;17.60;;;409.90;2124.80;;;;;;5070645;28;20029;-69
2021/04/30 06:53:31;;;;;;;24.40;17.42;;;409.90;2150.40;;;;;;5071110;28;20039;-69
2021/04/30 06:55:57;;;;;;;25.60;19.25;;;410.00;2124.80;;;;;;5071083;28;20375;-69
2021/04/30 06:58:23;;;;;;;24.77;17.50;;;410.00;2150.40;;;;;;5070697;28;20104;-69
2021/04/30 07:00:49;;;;;;;27.75;19.52;;;409.90;2150.40;;;;;;5070797;28;20024;-70
2021/04/30 07:03:15;;;;;;;31.60;20.52;;;410.00;2150.40;;;;;;5070417;28;20036;-68
2021/04/30 07:05:41;;;;;;;25.45;19.00;;;410.00;2150.40;;;;;;5070402;28;20036;-70
2021/04/30 07:08:06;;;;;;;25.83;18.15;;;410.00;2150.40;;;;;;5070428;28;20024;-69
2021/04/30 07:10:33;;;;;;;24.45;18.05;;;410.00;2150.40;;;;;;5070304;28;20021;-69
2021/04/30 07:13:09;;;;;;;25.90;18.08;;;410.10;2124.80;;;;;;5070320;28;20135;-70
2021/04/30 07:15:35;;;;;;;25.05;17.67;;;410.30;2099.20;;;;;;5070224;28;20028;-69
2021/04/30 07:18:01;;;;;;;22.50;16.58;;;410.40;2124.80;;;;;;5070143;28;20056;-70
2021/04/30 07:20:26;;;;;;;19.52;16.67;;;410.40;2150.40;;;;;;5070869;28;20052;-69
2021/04/30 07:22:52;;;;;;;21.00;16.15;;;410.50;2124.80;;;;;;5070499;28;20028;-69
2021/04/30 07:25:18;;;;;;;21.60;15.80;;;410.50;2099.20;;;;;;5070548;28;20362;-70
2021/04/30 07:27:43;;;;;;;21.30;16.13;;;435.20;2099.20;;;;;;5070410;28;20032;-70
2021/04/30 07:30:10;;;;;;;18.40;14.85;;;435.30;2099.20;;;;;;5070552;28;20355;-68
2021/04/30 07:32:35;;;;;;;19.42;15.00;;;435.40;2099.20;;;;;;5069960;28;20064;-69
2021/04/30 07:35:01;;;;;;;21.23;14.35;;;435.40;2099.20;;;;;;5070155;28;20056;-69
2021/04/30 07:37:27;;;;;;;20.95;15.30;;;435.60;2099.20;;;;;;5070511;28;20070;-68
2021/04/30 07:39:52;;;;;;;19.27;14.70;;;435.70;2099.20;;;;;;5070379;28;20463;-68
2021/04/30 07:42:18;;;;;;;18.02;14.50;;;435.80;2073.60;;;;;;5070345;28;20115;-68
2021/04/30 07:44:44;;;;;;;19.35;13.65;;;435.90;2048.00;;;;;;5070049;28;20028;-68
2021/04/30 07:47:10;;;;;;;20.50;13.90;;;435.90;2048.00;;;;;;5070173;28;20059;-69
2021/04/30 07:49:36;;;;;;;21.63;14.25;;;436.00;2073.60;;;;;;5070237;28;20029;-67
2021/04/30 07:52:01;;;;;;;21.67;14.45;;;436.00;2048.00;;;;;;5070090;28;20073;-68
2021/04/30 07:54:27;;;;;;;19.77;14.07;;;436.10;2073.60;;;;;;5070236;28;20027;-69
2021/04/30 07:56:53;;;;;;;19.20;14.68;;;436.10;2073.60;;;;;;5070159;28;20150;-68
2021/04/30 07:59:18;;;;;;;20.92;13.95;;;460.80;2073.60;;;;;;5070296;28;20025;-69
2021/04/30 08:01:44;;;;;;;22.77;14.95;;;460.90;2099.20;;;;;;5070088;28;20021;-69
2021/04/30 08:04:10;;;;;;;22.35;15.25;;;460.90;2099.20;;;;;;5070187;28;20024;-68
2021/04/30 08:06:38;;;;;;;21.25;14.82;;;461.10;2099.20;;;;;;5069887;28;20421;-68
2021/04/30 08:09:05;;;;;;;24.80;14.82;;;461.20;2073.60;;;;;;5069967;28;20032;-68
2021/04/30 08:11:30;;;;;;;20.73;13.70;;;461.30;2073.60;;;;;;5070187;28;20033;-68
2021/04/30 08:13:56;;;;;;;20.65;14.52;;;461.50;2073.60;;;;;;5070056;28;20048;-68
2021/04/30 08:16:22;;;;;;;19.52;14.52;;;461.60;2073.60;;;;;;5069609;28;20115;-68
2021/04/30 08:18:48;;;;;;;21.40;13.90;;;461.70;2022.40;;;;;;5072197;28;20086;-69
2021/04/30 08:21:14;;;;;;;19.63;13.77;;;486.40;2022.40;;;;;;5070570;28;20024;-70
2021/04/30 08:23:39;;;;;;;19.25;13.32;;;486.50;1971.20;;;;;;5064529;28;20021;-70
2021/04/30 08:26:06;;;;;;;20.90;14.73;;;486.60;1971.20;;;;;;5065368;28;20025;-69
2021/04/30 08:28:32;;;;;;;19.15;13.40;;;486.60;1945.60;;;;;;5062270;28;20024;-69
2021/04/30 08:30:58;;;;;;;21.63;15.57;;;486.70;1945.60;;;;;;5063558;28;20025;-68
2021/04/30 08:33:26;;;;;;;21.10;14.60;;;486.80;1971.20;;;;;;5061669;28;20079;-69
2021/04/30 08:35:55;;;;;;;19.17;13.50;;;486.90;1945.60;;;;;;5065449;28;20132;-70
2021/04/30 08:38:21;;;;;;;17.23;13.55;;;487.00;1920.00;;;;;;5061444;28;20103;-68
2021/04/30 08:40:47;;;;;;;17.08;12.55;;;487.10;1920.00;;;;;;5062755;28;20433;-69
2021/04/30 08:43:16;;;;;;;21.10;13.13;;;487.20;1894.40;;;;;;5062854;28;20025;-69
2021/04/30 08:45:42;;;;;;;17.92;12.50;;;487.30;1920.00;;;;;;5060891;28;20021;-70
2021/04/30 08:48:13;;;;;;;13.25;10.40;;;512.00;1868.80;;;;;;5062544;28;20355;-69
2021/04/30 08:50:43;;;;;;;15.60;9.93;;;512.10;1817.60;;;;;;5062661;28;20099;-68
2021/04/30 08:53:10;;;;;;;16.02;9.48;;;512.30;1792.00;;;;;;5061928;28;20531;-69
2021/04/30 08:55:36;;;;;;;15.30;8.77;;;512.40;1792.00;;;;;;5061181;28;20066;-68
2021/04/30 08:58:05;;;;;;;16.63;9.05;;;512.50;1740.80;;;;;;5063157;28;20421;-69
2021/04/30 09:00:31;;;;;;;14.75;7.80;;;512.70;1740.80;;;;;;5062211;28;20017;-69
2021/04/30 09:02:57;;;;;;;9.98;6.68;;;512.80;1715.20;;;;;;5060758;28;20021;-69
2021/04/30 09:05:30;;;;;;;17.15;8.25;;;537.60;1740.80;;;;;;5062994;28;20481;-70
2021/04/30 09:07:58;;;;;;;14.02;10.00;;;537.60;1715.20;;;;;;5062432;28;20025;-69
2021/04/30 09:10:25;;;;;;;19.27;9.63;;;537.60;1715.20;;;;;;5062899;28;20031;-69
2021/04/30 09:13:12;;;;;;;11.00;6.15;;;537.80;1664.00;;;;;;5060955;28;20037;-69
2021/04/30 09:15:41;;;;;;;11.45;9.30;;;537.80;1638.40;;;;;;5062382;28;20031;-69
2021/04/30 09:18:18;;;;;;;12.07;5.82;;;537.80;1638.40;;;;;;5061849;28;20052;-68
2021/04/30 09:20:47;;;;;;;10.80;5.50;;;537.90;1612.80;;;;;;5062286;28;20020;-68
2021/04/30 09:23:41;;;;;;;11.90;5.05;;;538.00;1612.80;;;;;;5061596;28;20432;-68
2021/04/30 09:26:28;;;;;;;13.40;5.25;;;538.10;1561.60;;;;;;5061304;28;20052;-68
2021/04/30 09:29:07;;;;;;;9.43;5.00;;;538.30;1587.20;;;;;;5061851;28;20047;-68
2021/04/30 09:31:44;;;;;;;11.07;4.53;;;538.30;1561.60;;;;;;5062384;28;20017;-69
2021/04/30 09:34:28;;;;;;;9.70;4.32;;;538.40;1536.00;;;;;;5062553;28;20025;-68
2021/04/30 09:37:16;;;;;;;7.80;3.60;;;538.50;1510.40;;;;;;5062002;28;20562;-68
2021/04/30 09:39:54;;;;;;;5.97;3.45;;;563.20;1510.40;;;;;;5062910;28;20487;-69
2021/04/30 09:42:31;;;;;;;8.50;4.03;;;563.30;1484.80;;;;;;5060127;28;20024;-66
2021/04/30 09:45:01;;;;;;;6.65;3.40;;;563.40;1484.80;;;;;;5059874;28;20028;-66
2021/04/30 09:47:29;;;;;;;8.45;3.75;;;563.40;1459.20;;;;;;5061452;28;20041;-67
2021/04/30 09:50:08;;;;;;;10.57;4.15;;;563.50;1459.20;;;;;;5061435;28;20021;-68
2021/04/30 09:52:34;;;;;;;13.13;8.88;;;563.60;1459.20;;;;;;5061667;28;20115;-67
2021/04/30 09:55:02;;;;;;;7.93;3.25;;;563.50;1459.20;;;;;;5062321;28;20104;-70
2021/04/30 09:57:30;;;;;;;6.30;3.08;;;563.50;1459.20;;;;;;5059605;28;20079;-69
2021/04/30 10:00:12;;;;;;;6.85;3.10;;;563.50;1433.60;;;;;;5059476;28;20009;-69
2021/04/30 10:02:38;;;;;;;6.57;2.83;;;563.50;1459.20;;;;;;5061981;28;20032;-69
2021/04/30 10:05:17;;;;;;;10.52;7.15;;;563.50;1382.40;;;;;;5061660;28;20049;-71
2021/04/30 10:07:43;;;;;;;13.15;6.60;;;563.50;1408.00;;;;;;5061252;28;20017;-69
2021/04/30 10:10:14;;;;;;;24.05;19.88;;;563.50;1408.00;;;;;;5060720;28;20021;-70
2021/04/30 10:12:41;;;;;;;;;;;563.60;1408.00;;;;;;5060223;28;20033;-70
2021/04/30 10:15:09;;;;;;;10.77;3.35;;;563.60;1356.80;;;;;;5061008;28;19909;-70
2021/04/30 10:17:36;;;;;;;6.95;4.05;;;563.60;1382.40;;;;;;5059744;28;20048;-69
2021/04/30 10:20:04;;;;;;;9.02;3.30;;;563.80;1382.40;;;;;;5059054;28;20071;-68
2021/04/30 10:22:31;;;;;;;6.50;2.53;;;563.80;1408.00;;;;;;5060219;28;20020;-68
2021/04/30 10:24:59;;;;;;;8.05;3.70;;;563.80;1382.40;;;;;;5061374;28;20020;-69
2021/04/30 10:27:45;;;;;;;6.95;2.90;;;563.90;1408.00;;;;;;5061470;28;20070;-68
2021/04/30 10:30:21;;;;;;;6.82;2.90;;;563.90;1382.40;;;;;;5061308;28;20467;-68
2021/04/30 10:33:24;;;;;;;4.70;2.55;;;564.00;1331.20;;;;;;5061456;28;20051;-69
2021/04/30 10:35:59;;;;;;;5.65;2.70;;;588.80;1356.80;;;;;;5061013;28;20082;-69
2021/04/30 10:38:28;;;;;;;8.80;2.88;;;588.80;1280.00;;;;;;5061330;28;20489;-69
2021/04/30 10:41:04;;;;;;;7.03;2.80;;;588.80;1305.60;;;;;;5060152;28;20099;-71
2021/04/30 10:43:31;;;;;;;6.88;2.95;;;588.80;1331.20;;;;;;5092083;28;20390;-71
2021/04/30 10:46:19;;;;;;;12.18;3.50;;;588.80;1331.20;;;;;;5059112;28;20039;-72
2021/04/30 10:49:21;;;;;;;6.97;2.25;;;588.80;1331.20;;;;;;5057178;28;20032;-74
2021/04/30 10:52:09;;;;;;;6.20;2.55;;;588.80;1254.40;;;;;;5038495;28;20049;-69
2021/04/30 10:54:39;;;;;;;7.57;5.35;;;564.10;1280.00;;;;;;5047588;28;20387;-72
2021/04/30 10:57:09;;;;;;;5.60;3.17;;;564.10;1356.80;;;;;;5038877;28;20426;-70
2021/04/30 10:59:38;;;;;;;3.70;2.22;;;588.80;1305.60;;;;;;5038154;28;20175;-72
2021/04/30 11:02:33;;;;;;;6.15;2.50;;;588.90;1305.60;;;;;;5038626;28;20072;-69
2021/04/30 11:05:11;;;;;;;5.60;2.53;;;588.90;1280.00;;;;;;5039095;28;20048;-70
2021/04/30 11:07:38;;;;;;;5.18;3.28;;;589.00;1228.80;;;;;;5036891;28;20040;-71
2021/04/30 11:10:22;;;;;;;9.40;5.85;;;589.00;1305.60;;;;;;5039145;28;20629;-71
2021/04/30 11:12:56;;;;;;;8.82;4.97;;;589.00;1280.00;;;;;;5046849;28;20041;-69
2021/04/30 11:15:22;;;;;;;15.15;10.63;;;589.00;1280.00;;;;;;5038519;28;20391;-70
2021/04/30 11:17:56;;;;;;;7.97;3.60;;;588.90;1280.00;;;;;;5037010;28;20056;-71
2021/04/30 11:20:24;;;;;;;7.60;3.05;;;589.00;1280.00;;;;;;5035776;28;20244;-70
2021/04/30 11:23:12;;;;;;;6.57;2.85;;;589.10;1305.60;;;;;;5037667;28;20099;-70
2021/04/30 11:25:59;;;;;;;6.85;2.78;;;589.30;1280.00;;;;;;5039202;28;20033;-70
2021/04/30 11:28:31;;;;;;;7.75;2.92;;;589.40;1228.80;;;;;;5059336;28;20364;-70
2021/04/30 11:31:01;;;;;;;6.47;2.28;;;589.40;1254.40;;;;;;5060559;28;20028;-69
2021/04/30 11:33:28;;;;;;;8.73;4.68;;;589.30;1203.20;;;;;;5060628;28;20123;-70
2021/04/30 11:35:54;;;;;;;8.48;3.28;;;589.30;1203.20;;;;;;5059507;28;20100;-69
2021/04/30 11:38:37;;;;;;;7.22;3.05;;;589.20;1203.20;;;;;;5058297;28;20551;-68
2021/04/30 11:41:03;;;;;;;9.63;5.05;;;589.30;1203.20;;;;;;5058252;28;20104;-69
2021/04/30 11:43:29;;;;;;;8.73;3.95;;;589.40;1177.60;;;;;;5059336;28;20016;-70
2021/04/30 11:45:55;;;;;;;8.30;4.20;;;589.60;1177.60;;;;;;5060075;28;20108;-70
2021/04/30 11:48:22;;;;;;;10.50;5.63;;;589.70;1177.60;;;;;;5058339;28;20589;-70
2021/04/30 11:51:14;;;;;;;9.68;4.93;;;614.40;1152.00;;;;;;5059367;28;20028;-70
2021/04/30 11:53:43;;;;;;;5.78;3.10;;;614.50;1126.40;;;;;;5062455;28;20487;-70
2021/04/30 11:56:11;;;;;;;5.18;2.70;;;614.50;1152.00;;;;;;5063231;28;20021;-69
2021/04/30 11:58:49;;;;;;;5.00;2.60;;;614.50;1177.60;;;;;;5062360;28;20493;-70
2021/04/30 12:01:15;;;;;;;4.35;2.58;;;614.50;1152.00;;;;;;5064138;28;20012;-69
2021/04/30 12:03:46;;;;;;;6.75;2.83;;;614.40;1177.60;;;;;;5064023;28;20052;-70
2021/04/30 12:06:16;;;;;;;6.63;2.85;;;614.50;1203.20;;;;;;5062960;28;20021;-71
2021/04/30 12:08:43;;;;;;;5.63;2.30;;;614.40;1203.20;;;;;;5061850;28;20021;-70